sensor_id;sensor_type;location;lat;lon;timestamp;temperature;humidity
36856;DHT22;22788;51.434;6.786;2023-05-01T00:00:12;13.70;99.90
36856;DHT22;22788;51.434;6.786;2023-05-01T00:02:39;13.70;99.90
36856;DHT22;22788;51.434;6.786;2023-05-01T00:05:06;13.70;99.90
36856;DHT22;22788;51.434;6.786;2023-05-01T00:07:32;13.70;99.90
36856;DHT22;22788;51.434;6.786;2023-05-01T00:09:57;13.70;99.90
36856;DHT22;22788;51.434;6.786;2023-05-01T00:12:23;13.60;99.90
36856;DHT22;22788;51.434;6.786;2023-05-01T00:14:49;13.70;99.90
36856;DHT22;22788;51.434;6.786;2023-05-01T00:17:15;13.70;99.90
36856;DHT22;22788;51.434;6.786;2023-05-01T00:19:42;13.70;99.90
36856;DHT22;22788;51.434;6.786;2023-05-01T00:22:08;13.70;99.90
36856;DHT22;22788;51.434;6.786;2023-05-01T00:24:33;13.60;99.90
36856;DHT22;22788;51.434;6.786;2023-05-01T00:26:59;13.60;99.90
36856;DHT22;22788;51.434;6.786;2023-05-01T00:29:24;13.70;99.90
36856;DHT22;22788;51.434;6.786;2023-05-01T00:31:50;13.60;99.90
36856;DHT22;22788;51.434;6.786;2023-05-01T00:34:16;13.60;99.90
36856;DHT22;22788;51.434;6.786;2023-05-01T00:36:43;13.60;99.90
36856;DHT22;22788;51.434;6.786;2023-05-01T00:39:08;13.60;99.90
36856;DHT22;22788;51.434;6.786;2023-05-01T00:41:34;13.60;99.90
36856;DHT22;22788;51.434;6.786;2023-05-01T00:44:00;13.60;99.90
36856;DHT22;22788;51.434;6.786;2023-05-01T00:46:26;13.60;99.90
36856;DHT22;22788;51.434;6.786;2023-05-01T00:48:52;13.70;99.90
36856;DHT22;22788;51.434;6.786;2023-05-01T00:51:18;13.60;99.90
36856;DHT22;22788;51.434;6.786;2023-05-01T00:53:45;13.60;99.90
36856;DHT22;22788;51.434;6.786;2023-05-01T00:56:11;13.60;99.90
36856;DHT22;22788;51.434;6.786;2023-05-01T00:58:37;13.60;99.90
36856;DHT22;22788;51.434;6.786;2023-05-01T01:01:03;13.50;99.90
36856;DHT22;22788;51.434;6.786;2023-05-01T01:03:29;13.60;99.90
36856;DHT22;22788;51.434;6.786;2023-05-01T01:05:58;13.50;99.90
36856;DHT22;22788;51.434;6.786;2023-05-01T01:08:34;13.60;99.90
36856;DHT22;22788;51.434;6.786;2023-05-01T01:11:13;13.50;99.90
36856;DHT22;22788;51.434;6.786;2023-05-01T01:13:44;13.50;99.90
36856;DHT22;22788;51.434;6.786;2023-05-01T01:16:16;13.50;99.90
36856;DHT22;22788;51.434;6.786;2023-05-01T01:18:49;13.50;99.90
36856;DHT22;22788;51.434;6.786;2023-05-01T01:21:22;13.50;99.90
36856;DHT22;22788;51.434;6.786;2023-05-01T01:24:20;13.50;99.90
36856;DHT22;22788;51.434;6.786;2023-05-01T01:27:23;13.50;99.90
36856;DHT22;22788;51.434;6.786;2023-05-01T01:30:05;13.40;99.90
36856;DHT22;22788;51.434;6.786;2023-05-01T01:33:02;13.40;99.90
36856;DHT22;22788;51.434;6.786;2023-05-01T01:35:36;13.40;99.90
36856;DHT22;22788;51.434;6.786;2023-05-01T01:38:05;13.40;99.90
36856;DHT22;22788;51.434;6.786;2023-05-01T01:40:37;13.40;99.90
36856;DHT22;22788;51.434;6.786;2023-05-01T01:43:06;13.40;99.90
36856;DHT22;22788;51.434;6.786;2023-05-01T01:45:35;13.40;99.90
36856;DHT22;22788;51.434;6.786;2023-05-01T01:48:02;13.40;99.90
36856;DHT22;22788;51.434;6.786;2023-05-01T01:50:30;13.40;99.90
36856;DHT22;22788;51.434;6.786;2023-05-01T01:52:59;13.40;99.90
36856;DHT22;22788;51.434;6.786;2023-05-01T01:55:28;13.30;99.90
36856;DHT22;22788;51.434;6.786;2023-05-01T01:57:57;13.40;99.90
36856;DHT22;22788;51.434;6.786;2023-05-01T02:00:24;13.40;99.90
36856;DHT22;22788;51.434;6.786;2023-05-01T02:02:51;13.40;99.90
36856;DHT22;22788;51.434;6.786;2023-05-01T02:05:19;13.30;99.90
36856;DHT22;22788;51.434;6.786;2023-05-01T02:07:48;13.30;99.90
36856;DHT22;22788;51.434;6.786;2023-05-01T02:10:16;13.30;99.90
36856;DHT22;22788;51.434;6.786;2023-05-01T02:12:45;13.30;99.90
36856;DHT22;22788;51.434;6.786;2023-05-01T02:15:13;13.30;99.90
36856;DHT22;22788;51.434;6.786;2023-05-01T02:17:40;13.30;99.90
36856;DHT22;22788;51.434;6.786;2023-05-01T02:20:07;13.20;99.90
36856;DHT22;22788;51.434;6.786;2023-05-01T02:22:35;13.30;99.90
36856;DHT22;22788;51.434;6.786;2023-05-01T02:25:02;13.30;99.90
36856;DHT22;22788;51.434;6.786;2023-05-01T02:27:31;13.30;99.90
36856;DHT22;22788;51.434;6.786;2023-05-01T02:29:59;13.30;99.90
36856;DHT22;22788;51.434;6.786;2023-05-01T02:32:24;13.20;99.90
36856;DHT22;22788;51.434;6.786;2023-05-01T02:34:50;13.30;99.90
36856;DHT22;22788;51.434;6.786;2023-05-01T02:37:16;13.30;99.90
36856;DHT22;22788;51.434;6.786;2023-05-01T02:39:41;13.30;99.90
36856;DHT22;22788;51.434;6.786;2023-05-01T02:42:08;13.30;99.90
36856;DHT22;22788;51.434;6.786;2023-05-01T02:44:38;13.30;99.90
36856;DHT22;22788;51.434;6.786;2023-05-01T02:47:06;13.20;99.90
36856;DHT22;22788;51.434;6.786;2023-05-01T02:49:34;13.20;99.90
36856;DHT22;22788;51.434;6.786;2023-05-01T02:52:01;13.20;99.90
36856;DHT22;22788;51.434;6.786;2023-05-01T02:54:27;13.20;99.90
36856;DHT22;22788;51.434;6.786;2023-05-01T02:56:53;13.20;99.90
36856;DHT22;22788;51.434;6.786;2023-05-01T02:59:18;13.20;99.90
36856;DHT22;22788;51.434;6.786;2023-05-01T03:01:46;13.20;99.90
36856;DHT22;22788;51.434;6.786;2023-05-01T03:04:11;13.20;99.90
36856;DHT22;22788;51.434;6.786;2023-05-01T03:06:37;13.20;99.90
36856;DHT22;22788;51.434;6.786;2023-05-01T03:09:02;13.20;99.90
36856;DHT22;22788;51.434;6.786;2023-05-01T03:11:28;13.20;99.90
36856;DHT22;22788;51.434;6.786;2023-05-01T03:13:53;13.20;99.90
36856;DHT22;22788;51.434;6.786;2023-05-01T03:16:19;13.20;99.90
36856;DHT22;22788;51.434;6.786;2023-05-01T03:18:46;13.20;99.90
36856;DHT22;22788;51.434;6.786;2023-05-01T03:21:12;13.10;99.90
36856;DHT22;22788;51.434;6.786;2023-05-01T03:23:37;13.10;99.90
36856;DHT22;22788;51.434;6.786;2023-05-01T03:26:03;13.10;99.90
36856;DHT22;22788;51.434;6.786;2023-05-01T03:28:29;13.10;99.90
36856;DHT22;22788;51.434;6.786;2023-05-01T03:30:54;13.10;99.90
36856;DHT22;22788;51.434;6.786;2023-05-01T03:33:20;13.10;99.90
36856;DHT22;22788;51.434;6.786;2023-05-01T03:35:47;13.10;99.90
36856;DHT22;22788;51.434;6.786;2023-05-01T03:38:12;13.10;99.90
36856;DHT22;22788;51.434;6.786;2023-05-01T03:40:38;13.10;99.90
36856;DHT22;22788;51.434;6.786;2023-05-01T03:43:03;13.10;99.90
36856;DHT22;22788;51.434;6.786;2023-05-01T03:45:29;13.10;99.90
36856;DHT22;22788;51.434;6.786;2023-05-01T03:47:55;13.10;99.90
36856;DHT22;22788;51.434;6.786;2023-05-01T03:50:20;13.10;99.90
36856;DHT22;22788;51.434;6.786;2023-05-01T03:52:47;13.00;99.90
36856;DHT22;22788;51.434;6.786;2023-05-01T03:55:13;13.00;99.90
36856;DHT22;22788;51.434;6.786;2023-05-01T03:57:38;13.00;99.90
36856;DHT22;22788;51.434;6.786;2023-05-01T04:00:05;13.00;99.90
36856;DHT22;22788;51.434;6.786;2023-05-01T04:02:31;13.00;99.90
36856;DHT22;22788;51.434;6.786;2023-05-01T04:04:56;13.00;99.90
36856;DHT22;22788;51.434;6.786;2023-05-01T04:07:22;13.00;99.90
36856;DHT22;22788;51.434;6.786;2023-05-01T04:09:49;13.00;99.90
36856;DHT22;22788;51.434;6.786;2023-05-01T04:12:15;13.00;99.90
36856;DHT22;22788;51.434;6.786;2023-05-01T04:14:41;13.00;99.90
36856;DHT22;22788;51.434;6.786;2023-05-01T04:17:06;13.00;99.90
36856;DHT22;22788;51.434;6.786;2023-05-01T04:19:32;13.00;99.90
36856;DHT22;22788;51.434;6.786;2023-05-01T04:21:57;13.00;99.90
36856;DHT22;22788;51.434;6.786;2023-05-01T04:24:23;13.00;99.90
36856;DHT22;22788;51.434;6.786;2023-05-01T04:26:50;12.90;99.90
36856;DHT22;22788;51.434;6.786;2023-05-01T04:29:15;13.00;99.90
36856;DHT22;22788;51.434;6.786;2023-05-01T04:31:41;12.90;99.90
36856;DHT22;22788;51.434;6.786;2023-05-01T04:34:07;12.90;99.90
36856;DHT22;22788;51.434;6.786;2023-05-01T04:36:32;13.00;99.90
36856;DHT22;22788;51.434;6.786;2023-05-01T04:38:58;12.90;99.90
36856;DHT22;22788;51.434;6.786;2023-05-01T04:41:23;12.90;99.90
36856;DHT22;22788;51.434;6.786;2023-05-01T04:43:50;12.90;99.90
36856;DHT22;22788;51.434;6.786;2023-05-01T04:46:16;12.90;99.90
36856;DHT22;22788;51.434;6.786;2023-05-01T04:48:41;12.90;99.90
36856;DHT22;22788;51.434;6.786;2023-05-01T04:51:07;12.90;99.90
36856;DHT22;22788;51.434;6.786;2023-05-01T04:53:33;12.90;99.90
36856;DHT22;22788;51.434;6.786;2023-05-01T04:55:58;12.80;99.90
36856;DHT22;22788;51.434;6.786;2023-05-01T04:58:24;12.90;99.90
36856;DHT22;22788;51.434;6.786;2023-05-01T05:00:51;12.90;99.90
36856;DHT22;22788;51.434;6.786;2023-05-01T05:03:16;12.80;99.90
36856;DHT22;22788;51.434;6.786;2023-05-01T05:05:42;12.90;99.90
36856;DHT22;22788;51.434;6.786;2023-05-01T05:08:08;12.90;99.90
36856;DHT22;22788;51.434;6.786;2023-05-01T05:10:33;12.90;99.90
36856;DHT22;22788;51.434;6.786;2023-05-01T05:12:59;12.80;99.90
36856;DHT22;22788;51.434;6.786;2023-05-01T05:15:24;12.90;99.90
36856;DHT22;22788;51.434;6.786;2023-05-01T05:17:51;12.90;99.90
36856;DHT22;22788;51.434;6.786;2023-05-01T05:20:17;12.90;99.90
36856;DHT22;22788;51.434;6.786;2023-05-01T05:22:42;13.10;99.90
36856;DHT22;22788;51.434;6.786;2023-05-01T05:25:08;13.00;99.90
36856;DHT22;22788;51.434;6.786;2023-05-01T05:27:34;12.80;99.90
36856;DHT22;22788;51.434;6.786;2023-05-01T05:29:59;12.90;99.90
36856;DHT22;22788;51.434;6.786;2023-05-01T05:32:25;12.80;99.90
36856;DHT22;22788;51.434;6.786;2023-05-01T05:34:52;12.80;99.90
36856;DHT22;22788;51.434;6.786;2023-05-01T05:37:18;12.80;99.90
36856;DHT22;22788;51.434;6.786;2023-05-01T05:39:43;12.80;99.90
36856;DHT22;22788;51.434;6.786;2023-05-01T05:42:09;12.80;99.90
36856;DHT22;22788;51.434;6.786;2023-05-01T05:44:34;12.80;99.90
36856;DHT22;22788;51.434;6.786;2023-05-01T05:47:00;12.80;99.90
36856;DHT22;22788;51.434;6.786;2023-05-01T05:49:26;12.80;99.90
36856;DHT22;22788;51.434;6.786;2023-05-01T05:51:53;12.80;99.90
36856;DHT22;22788;51.434;6.786;2023-05-01T05:54:18;12.80;99.90
36856;DHT22;22788;51.434;6.786;2023-05-01T05:56:44;12.80;99.90
36856;DHT22;22788;51.434;6.786;2023-05-01T05:59:09;12.90;99.90
36856;DHT22;22788;51.434;6.786;2023-05-01T06:01:35;12.90;99.90
36856;DHT22;22788;51.434;6.786;2023-05-01T06:04:00;12.90;99.90
36856;DHT22;22788;51.434;6.786;2023-05-01T06:06:26;12.90;99.90
36856;DHT22;22788;51.434;6.786;2023-05-01T06:08:53;12.90;99.90
36856;DHT22;22788;51.434;6.786;2023-05-01T06:11:19;12.90;99.90
36856;DHT22;22788;51.434;6.786;2023-05-01T06:13:44;13.00;99.90
36856;DHT22;22788;51.434;6.786;2023-05-01T06:16:10;13.00;99.90
36856;DHT22;22788;51.434;6.786;2023-05-01T06:18:36;13.00;99.90
36856;DHT22;22788;51.434;6.786;2023-05-01T06:21:01;12.90;99.90
36856;DHT22;22788;51.434;6.786;2023-05-01T06:23:27;12.90;99.90
36856;DHT22;22788;51.434;6.786;2023-05-01T06:25:54;13.00;99.90
36856;DHT22;22788;51.434;6.786;2023-05-01T06:28:20;13.00;99.90
36856;DHT22;22788;51.434;6.786;2023-05-01T06:30:45;13.00;99.90
36856;DHT22;22788;51.434;6.786;2023-05-01T06:33:11;13.00;99.90
36856;DHT22;22788;51.434;6.786;2023-05-01T06:35:37;13.00;99.90
36856;DHT22;22788;51.434;6.786;2023-05-01T06:38:03;13.10;99.90
36856;DHT22;22788;51.434;6.786;2023-05-01T06:40:29;13.00;99.90
36856;DHT22;22788;51.434;6.786;2023-05-01T06:42:56;13.00;99.90
36856;DHT22;22788;51.434;6.786;2023-05-01T06:45:21;13.10;99.90
36856;DHT22;22788;51.434;6.786;2023-05-01T06:47:47;13.10;99.90
36856;DHT22;22788;51.434;6.786;2023-05-01T06:50:13;13.00;99.90
36856;DHT22;22788;51.434;6.786;2023-05-01T06:52:39;13.10;99.90
36856;DHT22;22788;51.434;6.786;2023-05-01T06:55:05;13.10;99.90
36856;DHT22;22788;51.434;6.786;2023-05-01T06:57:31;13.10;99.90
36856;DHT22;22788;51.434;6.786;2023-05-01T06:59:57;13.10;99.90
36856;DHT22;22788;51.434;6.786;2023-05-01T07:02:23;13.10;99.90
36856;DHT22;22788;51.434;6.786;2023-05-01T07:04:49;13.20;99.90
36856;DHT22;22788;51.434;6.786;2023-05-01T07:07:14;13.20;99.90
36856;DHT22;22788;51.434;6.786;2023-05-01T07:09:40;13.20;99.90
36856;DHT22;22788;51.434;6.786;2023-05-01T07:12:06;13.20;99.90
36856;DHT22;22788;51.434;6.786;2023-05-01T07:14:31;13.20;99.90
36856;DHT22;22788;51.434;6.786;2023-05-01T07:16:58;13.30;99.90
36856;DHT22;22788;51.434;6.786;2023-05-01T07:19:24;13.30;99.90
36856;DHT22;22788;51.434;6.786;2023-05-01T07:21:49;13.40;99.90
36856;DHT22;22788;51.434;6.786;2023-05-01T07:24:15;13.40;99.90
36856;DHT22;22788;51.434;6.786;2023-05-01T07:26:41;13.40;99.90
36856;DHT22;22788;51.434;6.786;2023-05-01T07:29:07;13.50;99.90
36856;DHT22;22788;51.434;6.786;2023-05-01T07:31:33;13.50;99.90
36856;DHT22;22788;51.434;6.786;2023-05-01T07:34:00;13.50;99.90
36856;DHT22;22788;51.434;6.786;2023-05-01T07:36:25;13.50;99.90
36856;DHT22;22788;51.434;6.786;2023-05-01T07:38:51;13.50;99.90
36856;DHT22;22788;51.434;6.786;2023-05-01T07:41:16;13.70;99.90
36856;DHT22;22788;51.434;6.786;2023-05-01T07:43:42;13.60;99.90
36856;DHT22;22788;51.434;6.786;2023-05-01T07:46:08;13.60;99.90
36856;DHT22;22788;51.434;6.786;2023-05-01T07:48:33;13.70;99.90
36856;DHT22;22788;51.434;6.786;2023-05-01T07:51:02;13.70;99.90
36856;DHT22;22788;51.434;6.786;2023-05-01T07:53:28;13.70;99.90
36856;DHT22;22788;51.434;6.786;2023-05-01T07:55:53;13.70;99.90
36856;DHT22;22788;51.434;6.786;2023-05-01T07:58:19;13.80;99.90
36856;DHT22;22788;51.434;6.786;2023-05-01T08:00:44;13.80;99.90
36856;DHT22;22788;51.434;6.786;2023-05-01T08:03:11;13.80;99.90
36856;DHT22;22788;51.434;6.786;2023-05-01T08:05:39;13.70;99.90
36856;DHT22;22788;51.434;6.786;2023-05-01T08:08:06;13.80;99.90
36856;DHT22;22788;51.434;6.786;2023-05-01T08:10:32;13.90;99.90
36856;DHT22;22788;51.434;6.786;2023-05-01T08:12:57;14.00;99.90
36856;DHT22;22788;51.434;6.786;2023-05-01T08:15:23;14.00;99.90
36856;DHT22;22788;51.434;6.786;2023-05-01T08:17:48;14.00;99.90
36856;DHT22;22788;51.434;6.786;2023-05-01T08:20:17;14.20;99.90
36856;DHT22;22788;51.434;6.786;2023-05-01T08:22:42;14.20;99.90
36856;DHT22;22788;51.434;6.786;2023-05-01T08:25:09;14.20;99.90
36856;DHT22;22788;51.434;6.786;2023-05-01T08:27:38;14.30;99.90
36856;DHT22;22788;51.434;6.786;2023-05-01T08:30:05;14.30;99.90
36856;DHT22;22788;51.434;6.786;2023-05-01T08:32:31;14.20;99.90
36856;DHT22;22788;51.434;6.786;2023-05-01T08:34:56;14.40;99.90
36856;DHT22;22788;51.434;6.786;2023-05-01T08:37:22;14.20;99.90
36856;DHT22;22788;51.434;6.786;2023-05-01T08:39:48;14.40;99.90
36856;DHT22;22788;51.434;6.786;2023-05-01T08:42:15;14.20;99.90
36856;DHT22;22788;51.434;6.786;2023-05-01T08:44:41;14.40;99.90
36856;DHT22;22788;51.434;6.786;2023-05-01T08:47:14;15.10;99.90
36856;DHT22;22788;51.434;6.786;2023-05-01T08:49:47;14.50;99.90
36856;DHT22;22788;51.434;6.786;2023-05-01T08:52:19;14.60;99.90
36856;DHT22;22788;51.434;6.786;2023-05-01T08:54:52;14.60;99.90
36856;DHT22;22788;51.434;6.786;2023-05-01T08:57:23;14.60;99.90
36856;DHT22;22788;51.434;6.786;2023-05-01T08:59:55;14.70;99.90
36856;DHT22;22788;51.434;6.786;2023-05-01T09:02:22;14.70;99.90
36856;DHT22;22788;51.434;6.786;2023-05-01T09:04:50;14.80;99.90
36856;DHT22;22788;51.434;6.786;2023-05-01T09:07:16;14.90;99.90
36856;DHT22;22788;51.434;6.786;2023-05-01T09:09:42;14.90;99.90
36856;DHT22;22788;51.434;6.786;2023-05-01T09:12:17;14.80;99.90
36856;DHT22;22788;51.434;6.786;2023-05-01T09:14:49;14.90;99.90
36856;DHT22;22788;51.434;6.786;2023-05-01T09:17:16;14.90;99.90
36856;DHT22;22788;51.434;6.786;2023-05-01T09:19:42;15.00;99.90
36856;DHT22;22788;51.434;6.786;2023-05-01T09:22:11;15.00;99.90
36856;DHT22;22788;51.434;6.786;2023-05-01T09:24:36;15.00;99.90
36856;DHT22;22788;51.434;6.786;2023-05-01T09:27:02;15.10;99.90
36856;DHT22;22788;51.434;6.786;2023-05-01T09:29:38;15.30;99.90
36856;DHT22;22788;51.434;6.786;2023-05-01T09:32:22;15.20;99.90
36856;DHT22;22788;51.434;6.786;2023-05-01T09:34:48;15.20;99.90
36856;DHT22;22788;51.434;6.786;2023-05-01T09:37:26;15.30;99.90
36856;DHT22;22788;51.434;6.786;2023-05-01T09:40:06;15.30;99.90
36856;DHT22;22788;51.434;6.786;2023-05-01T09:42:33;15.40;99.90
36856;DHT22;22788;51.434;6.786;2023-05-01T09:45:04;15.40;99.90
36856;DHT22;22788;51.434;6.786;2023-05-01T09:47:31;15.50;99.90
36856;DHT22;22788;51.434;6.786;2023-05-01T09:49:58;15.60;99.90
36856;DHT22;22788;51.434;6.786;2023-05-01T09:52:25;15.40;99.90
36856;DHT22;22788;51.434;6.786;2023-05-01T09:55:10;15.50;99.90
36856;DHT22;22788;51.434;6.786;2023-05-01T09:57:36;15.50;99.90
36856;DHT22;22788;51.434;6.786;2023-05-01T10:00:02;15.60;99.90
36856;DHT22;22788;51.434;6.786;2023-05-01T10:02:33;15.60;99.90
36856;DHT22;22788;51.434;6.786;2023-05-01T10:05:10;15.60;99.90
36856;DHT22;22788;51.434;6.786;2023-05-01T10:07:36;15.50;99.90
36856;DHT22;22788;51.434;6.786;2023-05-01T10:10:15;15.70;99.90
36856;DHT22;22788;51.434;6.786;2023-05-01T10:12:41;15.60;99.90
36856;DHT22;22788;51.434;6.786;2023-05-01T10:15:08;15.70;99.90
36856;DHT22;22788;51.434;6.786;2023-05-01T10:17:37;15.70;99.90
36856;DHT22;22788;51.434;6.786;2023-05-01T10:20:03;15.80;99.90
36856;DHT22;22788;51.434;6.786;2023-05-01T10:22:29;15.80;99.90
36856;DHT22;22788;51.434;6.786;2023-05-01T10:24:55;15.90;99.90
36856;DHT22;22788;51.434;6.786;2023-05-01T10:27:23;16.00;99.90
36856;DHT22;22788;51.434;6.786;2023-05-01T10:29:51;16.10;99.90
36856;DHT22;22788;51.434;6.786;2023-05-01T10:32:17;16.20;99.90
36856;DHT22;22788;51.434;6.786;2023-05-01T10:34:48;16.10;99.90
36856;DHT22;22788;51.434;6.786;2023-05-01T10:37:19;16.10;99.90
36856;DHT22;22788;51.434;6.786;2023-05-01T10:39:46;16.10;99.90
36856;DHT22;22788;51.434;6.786;2023-05-01T10:42:12;16.20;99.90
36856;DHT22;22788;51.434;6.786;2023-05-01T10:44:37;16.20;99.90
36856;DHT22;22788;51.434;6.786;2023-05-01T10:50:09;16.40;99.90
36856;DHT22;22788;51.434;6.786;2023-05-01T10:55:38;16.40;99.90
36856;DHT22;22788;51.434;6.786;2023-05-01T10:58:04;16.50;99.90
36856;DHT22;22788;51.434;6.786;2023-05-01T11:00:30;16.50;99.90
36856;DHT22;22788;51.434;6.786;2023-05-01T11:14:06;16.80;99.90
36856;DHT22;22788;51.434;6.786;2023-05-01T11:16:43;16.80;99.90
36856;DHT22;22788;51.434;6.786;2023-05-01T11:19:10;16.90;99.90
36856;DHT22;22788;51.434;6.786;2023-05-01T11:21:37;16.90;99.90
36856;DHT22;22788;51.434;6.786;2023-05-01T11:24:03;16.80;99.90
36856;DHT22;22788;51.434;6.786;2023-05-01T11:28:57;16.90;99.90
36856;DHT22;22788;51.434;6.786;2023-05-01T11:31:24;17.00;99.90
36856;DHT22;22788;51.434;6.786;2023-05-01T11:33:51;16.90;99.90
36856;DHT22;22788;51.434;6.786;2023-05-01T11:36:17;17.00;99.90
36856;DHT22;22788;51.434;6.786;2023-05-01T11:38:53;17.10;99.90
36856;DHT22;22788;51.434;6.786;2023-05-01T11:41:19;17.20;99.90
36856;DHT22;22788;51.434;6.786;2023-05-01T11:43:49;17.40;99.90
36856;DHT22;22788;51.434;6.786;2023-05-01T11:46:23;17.30;99.90
36856;DHT22;22788;51.434;6.786;2023-05-01T11:48:49;17.40;99.90
36856;DHT22;22788;51.434;6.786;2023-05-01T11:51:15;17.60;97.60
36856;DHT22;22788;51.434;6.786;2023-05-01T11:53:56;17.60;99.10
36856;DHT22;22788;51.434;6.786;2023-05-01T11:56:25;17.60;99.00
36856;DHT22;22788;51.434;6.786;2023-05-01T11:58:52;17.70;99.90
36856;DHT22;22788;51.434;6.786;2023-05-01T12:01:20;17.80;98.80
36856;DHT22;22788;51.434;6.786;2023-05-01T12:03:47;17.80;99.30
36856;DHT22;22788;51.434;6.786;2023-05-01T12:06:15;18.00;99.30
36856;DHT22;22788;51.434;6.786;2023-05-01T12:08:42;17.90;98.40
36856;DHT22;22788;51.434;6.786;2023-05-01T12:11:08;17.70;99.60
36856;DHT22;22788;51.434;6.786;2023-05-01T12:13:34;17.70;98.80
36856;DHT22;22788;51.434;6.786;2023-05-01T12:16:04;17.70;97.50
36856;DHT22;22788;51.434;6.786;2023-05-01T12:18:30;17.70;98.80
36856;DHT22;22788;51.434;6.786;2023-05-01T12:20:57;17.60;99.90
36856;DHT22;22788;51.434;6.786;2023-05-01T12:23:30;17.50;99.90
36856;DHT22;22788;51.434;6.786;2023-05-01T12:26:14;17.40;98.50
36856;DHT22;22788;51.434;6.786;2023-05-01T12:28:52;17.50;99.70
36856;DHT22;22788;51.434;6.786;2023-05-01T12:31:18;17.60;98.90
36856;DHT22;22788;51.434;6.786;2023-05-01T12:33:52;17.60;99.90
36856;DHT22;22788;51.434;6.786;2023-05-01T12:36:20;17.50;98.70
36856;DHT22;22788;51.434;6.786;2023-05-01T12:38:54;17.60;99.90
36856;DHT22;22788;51.434;6.786;2023-05-01T12:41:19;17.50;99.90
36856;DHT22;22788;51.434;6.786;2023-05-01T12:43:45;17.60;97.70
36856;DHT22;22788;51.434;6.786;2023-05-01T12:46:13;17.70;97.50
36856;DHT22;22788;51.434;6.786;2023-05-01T12:48:39;17.70;96.30
36856;DHT22;22788;51.434;6.786;2023-05-01T12:51:05;17.70;98.20
36856;DHT22;22788;51.434;6.786;2023-05-01T12:53:32;17.70;99.90
36856;DHT22;22788;51.434;6.786;2023-05-01T12:55:58;17.60;99.00
36856;DHT22;22788;51.434;6.786;2023-05-01T12:58:31;17.70;98.40
36856;DHT22;22788;51.434;6.786;2023-05-01T13:00:58;17.80;98.80
36856;DHT22;22788;51.434;6.786;2023-05-01T13:03:25;17.70;99.90
36856;DHT22;22788;51.434;6.786;2023-05-01T13:05:53;17.70;99.50
36856;DHT22;22788;51.434;6.786;2023-05-01T13:08:29;17.70;99.60
36856;DHT22;22788;51.434;6.786;2023-05-01T13:10:58;18.00;99.50
36856;DHT22;22788;51.434;6.786;2023-05-01T13:13:28;18.10;98.30
36856;DHT22;22788;51.434;6.786;2023-05-01T13:16:05;18.20;97.10
36856;DHT22;22788;51.434;6.786;2023-05-01T13:18:32;18.30;96.20
36856;DHT22;22788;51.434;6.786;2023-05-01T13:21:06;18.30;97.10
36856;DHT22;22788;51.434;6.786;2023-05-01T13:23:54;18.20;95.10
36856;DHT22;22788;51.434;6.786;2023-05-01T13:26:26;18.30;95.70
36856;DHT22;22788;51.434;6.786;2023-05-01T13:28:52;18.40;95.40
36856;DHT22;22788;51.434;6.786;2023-05-01T13:31:17;18.30;92.90
36856;DHT22;22788;51.434;6.786;2023-05-01T13:33:45;18.30;93.10
36856;DHT22;22788;51.434;6.786;2023-05-01T13:36:14;18.20;95.50
36856;DHT22;22788;51.434;6.786;2023-05-01T13:38:44;18.10;99.00
36856;DHT22;22788;51.434;6.786;2023-05-01T13:41:15;18.00;96.90
36856;DHT22;22788;51.434;6.786;2023-05-01T13:43:43;17.90;94.80
36856;DHT22;22788;51.434;6.786;2023-05-01T13:46:10;17.90;96.70
36856;DHT22;22788;51.434;6.786;2023-05-01T13:48:35;17.90;98.10
36856;DHT22;22788;51.434;6.786;2023-05-01T13:51:05;17.80;96.10
36856;DHT22;22788;51.434;6.786;2023-05-01T13:53:34;17.80;99.90
36856;DHT22;22788;51.434;6.786;2023-05-01T13:56:00;17.70;97.70
36856;DHT22;22788;51.434;6.786;2023-05-01T13:58:30;17.70;99.20
36856;DHT22;22788;51.434;6.786;2023-05-01T14:00:57;17.60;98.40
36856;DHT22;22788;51.434;6.786;2023-05-01T14:03:31;17.60;98.30
36856;DHT22;22788;51.434;6.786;2023-05-01T14:06:00;17.60;98.10
36856;DHT22;22788;51.434;6.786;2023-05-01T14:08:29;17.60;97.10
36856;DHT22;22788;51.434;6.786;2023-05-01T14:10:57;17.70;99.50
36856;DHT22;22788;51.434;6.786;2023-05-01T14:13:26;17.50;98.70
36856;DHT22;22788;51.434;6.786;2023-05-01T14:15:51;17.50;99.90
36856;DHT22;22788;51.434;6.786;2023-05-01T14:18:20;17.50;99.90
36856;DHT22;22788;51.434;6.786;2023-05-01T14:20:45;17.50;99.90
36856;DHT22;22788;51.434;6.786;2023-05-01T14:23:13;17.70;99.90
36856;DHT22;22788;51.434;6.786;2023-05-01T14:25:39;17.40;99.90
36856;DHT22;22788;51.434;6.786;2023-05-01T14:28:05;17.30;99.90
36856;DHT22;22788;51.434;6.786;2023-05-01T14:30:33;17.30;99.90
36856;DHT22;22788;51.434;6.786;2023-05-01T14:33:00;17.20;99.90
36856;DHT22;22788;51.434;6.786;2023-05-01T14:35:27;17.10;99.90
36856;DHT22;22788;51.434;6.786;2023-05-01T14:37:53;17.00;99.90
36856;DHT22;22788;51.434;6.786;2023-05-01T14:40:24;16.90;99.90
36856;DHT22;22788;51.434;6.786;2023-05-01T14:42:50;16.80;99.90
36856;DHT22;22788;51.434;6.786;2023-05-01T14:45:16;16.60;99.90
36856;DHT22;22788;51.434;6.786;2023-05-01T14:47:43;16.40;99.90
36856;DHT22;22788;51.434;6.786;2023-05-01T14:50:10;16.30;99.90
36856;DHT22;22788;51.434;6.786;2023-05-01T14:52:38;16.20;99.90
36856;DHT22;22788;51.434;6.786;2023-05-01T14:55:04;16.10;99.90
36856;DHT22;22788;51.434;6.786;2023-05-01T14:57:30;16.10;99.90
36856;DHT22;22788;51.434;6.786;2023-05-01T14:59:55;16.00;99.90
36856;DHT22;22788;51.434;6.786;2023-05-01T15:02:21;15.90;99.90
36856;DHT22;22788;51.434;6.786;2023-05-01T15:04:46;15.80;99.90
36856;DHT22;22788;51.434;6.786;2023-05-01T15:07:12;15.80;99.90
36856;DHT22;22788;51.434;6.786;2023-05-01T15:09:41;15.70;99.90
36856;DHT22;22788;51.434;6.786;2023-05-01T15:12:07;15.70;99.90
36856;DHT22;22788;51.434;6.786;2023-05-01T15:14:32;15.70;99.90
36856;DHT22;22788;51.434;6.786;2023-05-01T15:16:58;15.70;99.90
36856;DHT22;22788;51.434;6.786;2023-05-01T15:19:24;15.70;99.90
36856;DHT22;22788;51.434;6.786;2023-05-01T15:21:49;15.60;99.90
36856;DHT22;22788;51.434;6.786;2023-05-01T15:24:15;15.60;99.90
36856;DHT22;22788;51.434;6.786;2023-05-01T15:26:42;15.50;99.90
36856;DHT22;22788;51.434;6.786;2023-05-01T15:29:07;15.50;99.90
36856;DHT22;22788;51.434;6.786;2023-05-01T15:31:33;15.50;99.90
36856;DHT22;22788;51.434;6.786;2023-05-01T15:33:58;15.50;99.90
36856;DHT22;22788;51.434;6.786;2023-05-01T15:36:24;15.50;99.90
36856;DHT22;22788;51.434;6.786;2023-05-01T15:38:50;15.50;99.90
36856;DHT22;22788;51.434;6.786;2023-05-01T15:41:15;15.50;99.90
36856;DHT22;22788;51.434;6.786;2023-05-01T15:43:42;15.50;99.90
36856;DHT22;22788;51.434;6.786;2023-05-01T15:46:08;15.50;99.90
36856;DHT22;22788;51.434;6.786;2023-05-01T15:48:34;15.50;99.90
36856;DHT22;22788;51.434;6.786;2023-05-01T15:50:59;15.50;99.90